Rio Dell, California
Current Conditions -  °F | °C
As of 7:30 AM on Thursday 23 Oct 2014 (Local Time) from KFOT Reporting Station
Broken Clouds Broken Clouds  
Wind Chill: 59°   Ceiling: 5000
Heat Index: 59°   Visibility: 5mi
Dew Point: 57°   Wind: 15mph
Humidity: 94%   Direction: 130°SE
Pressure: 29.93"   Gusts: NA
Location:  40.5°N, 124.11°W
Report Text: KFOT 231430Z AUTO 13013KT 5SM FEW003 SCT028 BKN050 15/14 A2993 RMK AO1 P0005
Loading
Personal Weather Stations






























Interactive Weather Map
Tropical Storm Tracking
New forecast layout! Learn more

10-Day Weather Forecast

Advertisements
Track Severe Weather on mobile